Time;durP1;ratioP1;P1;durP2;ratioP2;P2;SDS_P1;SDS_P2;PMS_P1;PMS_P2;Temp;Humidity;BMP_temperature;BMP_pressure;BME280_temperature;BME280_humidity;BME280_pressure;Samples;Min_cycle;Max_cycle;Signal;HPM_P1;HPM_P2
2024/01/06 00:00:52;;;;;;;29.10;14.20;;;;;;;6.26;100.00;100161.94;4883048;29;20033;-76
2024/01/06 00:03:17;;;;;;;26.52;14.15;;;;;;;6.23;100.00;100165.66;4887448;29;20029;-76
2024/01/06 00:05:43;;;;;;;28.48;13.98;;;;;;;6.24;100.00;100175.38;4883927;29;20477;-76
2024/01/06 00:08:08;;;;;;;25.70;12.68;;;;;;;6.24;100.00;100177.19;4890918;29;20128;-76
2024/01/06 00:10:33;;;;;;;25.23;12.52;;;;;;;6.23;100.00;100179.00;4886198;29;20077;-76
2024/01/06 00:12:59;;;;;;;28.95;12.90;;;;;;;6.20;100.00;100179.19;4890020;29;20037;-76
2024/01/06 00:15:24;;;;;;;28.60;14.63;;;;;;;6.17;100.00;100179.41;4896079;29;20036;-76
2024/01/06 00:17:49;;;;;;;25.52;12.95;;;;;;;6.16;100.00;100191.03;4890114;29;20043;-76
2024/01/06 00:20:14;;;;;;;27.02;13.27;;;;;;;6.16;100.00;100195.50;4888266;29;20029;-76
2024/01/06 00:22:42;;;;;;;26.20;14.23;;;;;;;6.14;100.00;100208.97;4897467;29;20047;-77
2024/01/06 00:25:07;;;;;;;26.52;13.57;;;;;;;6.11;100.00;100202.00;4893138;29;20077;-76
2024/01/06 00:27:33;;;;;;;26.98;14.60;;;;;;;6.13;100.00;100199.22;4891983;29;20020;-76
2024/01/06 00:29:58;;;;;;;28.35;14.88;;;;;;;6.10;100.00;100204.78;4890492;29;20029;-76
2024/01/06 00:32:23;;;;;;;26.88;14.90;;;;;;;6.09;100.00;100209.25;4891093;29;20037;-76
2024/01/06 00:34:49;;;;;;;30.15;14.95;;;;;;;6.08;100.00;100214.69;4891082;29;20120;-76
2024/01/06 00:37:14;;;;;;;27.73;15.70;;;;;;;6.05;100.00;100214.91;4887954;29;20053;-76
2024/01/06 00:39:39;;;;;;;29.63;15.60;;;;;;;6.00;100.00;100212.50;4888148;29;20174;-76
2024/01/06 00:42:05;;;;;;;30.70;16.50;;;;;;;5.98;100.00;100216.25;4891741;29;20032;-76
2024/01/06 00:44:30;;;;;;;27.85;15.20;;;;;;;5.98;100.00;100216.25;4887660;29;20063;-76
2024/01/06 00:46:55;;;;;;;30.65;18.55;;;;;;;5.95;100.00;100217.25;4883107;29;20100;-76
2024/01/06 00:49:20;;;;;;;31.67;17.00;;;;;;;5.92;100.00;100212.13;4894574;29;20029;-76
2024/01/06 00:51:46;;;;;;;28.63;15.93;;;;;;;5.92;100.00;100218.31;4894994;29;20032;-76
2024/01/06 00:54:11;;;;;;;29.67;16.63;;;;;;;5.90;100.00;100214.91;4899821;29;20093;-75
2024/01/06 00:56:41;;;;;;;31.63;17.13;;;;;;;5.91;100.00;100218.41;4894451;29;20526;-75
2024/01/06 00:59:07;;;;;;;29.23;15.10;;;;;;;5.86;100.00;100217.88;4906514;29;20033;-74
2024/01/06 01:01:32;;;;;;;29.15;16.17;;;;;;;5.82;100.00;100216.34;4891161;29;20458;-74
2024/01/06 01:03:57;;;;;;;29.88;15.60;;;;;;;5.80;100.00;100223.56;4890931;29;20045;-75
2024/01/06 01:06:23;;;;;;;29.13;15.40;;;;;;;5.74;100.00;100231.00;4893605;29;20033;-75
2024/01/06 01:08:48;;;;;;;29.58;13.80;;;;;;;5.71;100.00;100230.34;4898704;29;20029;-76
2024/01/06 01:11:13;;;;;;;27.85;14.88;;;;;;;5.70;100.00;100232.16;4898653;29;20029;-74
2024/01/06 01:13:38;;;;;;;30.63;16.00;;;;;;;5.71;100.00;100235.66;4894427;29;20057;-74
2024/01/06 01:16:04;;;;;;;27.75;14.55;;;;;;;5.65;100.00;100231.59;4890755;29;20032;-74
2024/01/06 01:18:29;;;;;;;29.60;15.20;;;;;;;5.60;100.00;100236.34;4899047;29;20032;-75
2024/01/06 01:20:55;;;;;;;32.70;17.77;;;;;;;5.52;100.00;100241.28;4901079;29;20033;-74
2024/01/06 01:23:20;;;;;;;30.75;16.23;;;;;;;5.45;100.00;100239.94;4896518;29;20033;-75
2024/01/06 01:25:46;;;;;;;31.02;16.35;;;;;;;5.40;100.00;100237.56;4894959;29;20155;-76
2024/01/06 01:28:11;;;;;;;29.88;16.33;;;;;;;5.35;100.00;100240.53;4894136;29;20345;-75
2024/01/06 01:30:36;;;;;;;29.60;15.52;;;;;;;5.32;100.00;100256.72;4890251;29;20405;-75
2024/01/06 01:33:02;;;;;;;27.48;14.98;;;;;;;5.28;100.00;100249.00;4893829;29;20068;-74
2024/01/06 01:35:27;;;;;;;28.00;14.68;;;;;;;5.27;100.00;100250.81;4896353;29;20527;-74
2024/01/06 01:37:52;;;;;;;28.55;15.48;;;;;;;5.29;100.00;100254.22;4893626;29;20429;-75
2024/01/06 01:40:18;;;;;;;28.63;15.60;;;;;;;5.31;100.00;100267.47;4893768;29;20085;-74
2024/01/06 01:42:43;;;;;;;29.92;15.75;;;;;;;5.31;100.00;100262.13;4899543;29;20113;-76
2024/01/06 01:45:09;;;;;;;30.05;15.93;;;;;;;5.35;100.00;100271.66;4899526;29;20045;-75
2024/01/06 01:47:34;;;;;;;29.08;15.23;;;;;;;5.38;100.00;100271.47;4896052;29;20449;-75
2024/01/06 01:50:01;;;;;;;28.80;15.02;;;;;;;5.39;100.00;100274.03;4899097;29;20029;-74
2024/01/06 01:52:26;;;;;;;28.67;14.75;;;;;;;5.42;100.00;100273.84;4897566;29;20036;-74
2024/01/06 01:54:52;;;;;;;29.08;15.30;;;;;;;5.43;100.00;100274.69;4884681;29;20425;-75
2024/01/06 01:57:18;;;;;;;27.42;15.45;;;;;;;5.43;100.00;100277.34;4878399;29;20037;-75
2024/01/06 01:59:44;;;;;;;28.00;13.68;;;;;;;5.44;100.00;100287.06;4881351;29;20085;-76
2024/01/06 02:02:09;;;;;;;26.73;13.88;;;;;;;5.43;100.00;100286.22;4878451;29;20035;-75
2024/01/06 02:04:35;;;;;;;29.50;14.00;;;;;;;5.40;100.00;100285.53;4879044;29;20186;-75
2024/01/06 02:07:00;;;;;;;27.77;13.45;;;;;;;5.38;100.00;100288.31;4881342;29;20024;-76
2024/01/06 02:09:29;;;;;;;27.00;14.13;;;;;;;5.37;100.00;100286.63;4878090;29;20048;-75
2024/01/06 02:11:56;;;;;;;26.40;13.18;;;;;;;5.33;100.00;100290.41;4876663;29;20429;-75
2024/01/06 02:14:21;;;;;;;27.73;14.48;;;;;;;5.30;100.00;100295.03;4877364;29;20021;-75
2024/01/06 02:16:47;;;;;;;26.75;13.57;;;;;;;5.27;100.00;100300.56;4875167;29;20035;-75
2024/01/06 02:19:13;;;;;;;27.33;13.35;;;;;;;5.27;100.00;100300.56;4874898;29;20331;-76
2024/01/06 02:21:43;;;;;;;26.27;13.57;;;;;;;5.28;100.00;100308.47;4868665;29;20041;-75
2024/01/06 02:24:08;;;;;;;26.35;13.43;;;;;;;5.27;100.00;100316.53;4881136;29;20394;-75
2024/01/06 02:26:34;;;;;;;25.60;11.90;;;;;;;5.28;100.00;100312.94;4876834;29;20091;-75
2024/01/06 02:28:59;;;;;;;25.67;11.77;;;;;;;5.27;100.00;100321.88;4881068;29;20040;-75
2024/01/06 02:31:24;;;;;;;24.83;10.70;;;;;;;5.21;100.00;100328.44;4875548;29;20152;-75
2024/01/06 02:33:50;;;;;;;22.67;10.95;;;;;;;5.15;100.00;100326.13;4876397;29;20020;-75
2024/01/06 02:36:15;;;;;;;21.58;10.10;;;;;;;5.13;100.00;100326.22;4873189;29;20458;-75
2024/01/06 02:38:40;;;;;;;22.40;10.55;;;;;;;5.14;100.00;100330.59;4875096;29;20045;-76
2024/01/06 02:41:06;;;;;;;21.98;8.77;;;;;;;5.13;100.00;100336.03;4876870;29;20340;-76
2024/01/06 02:43:31;;;;;;;21.30;8.82;;;;;;;5.10;100.00;100330.88;4874980;29;20362;-75
2024/01/06 02:45:56;;;;;;;21.95;10.00;;;;;;;5.08;100.00;100339.81;4877799;29;20040;-75
2024/01/06 02:48:21;;;;;;;21.85;8.60;;;;;;;5.07;100.00;100339.91;4873754;29;20112;-76
2024/01/06 02:50:47;;;;;;;21.33;8.77;;;;;;;5.05;100.00;100348.00;4881907;29;20032;-75
2024/01/06 02:53:12;;;;;;;21.65;7.57;;;;;;;5.04;100.00;100348.09;4879415;29;20039;-75
2024/01/06 02:55:38;;;;;;;21.98;8.57;;;;;;;5.02;100.00;100357.94;4873676;29;20025;-75
2024/01/06 02:58:03;;;;;;;22.95;9.38;;;;;;;4.98;100.00;100367.06;4873213;29;20036;-76
2024/01/06 03:00:29;;;;;;;21.85;8.68;;;;;;;4.98;100.00;100367.06;4873645;29;20040;-75
2024/01/06 03:02:54;;;;;;;22.35;9.35;;;;;;;4.97;100.00;100373.34;4878996;29;20036;-76
2024/01/06 03:05:19;;;;;;;20.75;8.30;;;;;;;4.98;100.00;100380.38;4877223;29;20505;-75
2024/01/06 03:07:44;;;;;;;23.35;9.93;;;;;;;4.97;100.00;100384.00;4875760;29;20025;-76
2024/01/06 03:10:10;;;;;;;20.05;8.88;;;;;;;4.98;100.00;100383.03;4879100;29;20150;-75
2024/01/06 03:12:35;;;;;;;22.90;9.05;;;;;;;4.97;100.00;100392.00;4881439;29;20435;-74
2024/01/06 03:15:00;;;;;;;20.42;8.45;;;;;;;4.91;100.00;100395.84;4895969;29;20033;-76
2024/01/06 03:17:29;;;;;;;21.98;8.48;;;;;;;4.85;100.00;100402.38;4899800;29;20024;-76
2024/01/06 03:19:54;;;;;;;21.98;8.10;;;;;;;4.83;100.00;100406.97;4898660;29;20028;-74
2024/01/06 03:22:20;;;;;;;20.98;7.53;;;;;;;4.81;100.00;100406.16;4901545;29;20145;-75
2024/01/06 03:24:45;;;;;;;20.35;8.15;;;;;;;4.82;100.00;100412.38;4897983;29;20017;-75
2024/01/06 03:27:10;;;;;;;21.25;8.23;;;;;;;4.83;100.00;100409.63;4898476;29;20103;-74
2024/01/06 03:29:36;;;;;;;21.75;7.85;;;;;;;4.82;100.00;100417.69;4897482;29;20104;-76
2024/01/06 03:32:01;;;;;;;20.30;7.75;;;;;;;4.78;100.00;100417.00;4897567;29;20041;-75
2024/01/06 03:34:26;;;;;;;21.00;8.57;;;;;;;4.76;100.00;100418.00;4894763;29;20040;-74
2024/01/06 03:36:51;;;;;;;20.75;8.38;;;;;;;4.75;100.00;100422.50;4895939;29;20049;-75
2024/01/06 03:39:17;;;;;;;21.65;8.18;;;;;;;4.73;100.00;100425.25;4895967;29;20033;-75
2024/01/06 03:41:42;;;;;;;22.73;7.78;;;;;;;4.75;100.00;100424.31;4894162;29;20036;-75
2024/01/06 03:44:07;;;;;;;21.52;8.48;;;;;;;4.72;100.00;100430.66;4893913;29;20331;-75
2024/01/06 03:46:34;;;;;;;20.48;7.90;;;;;;;4.70;100.00;100435.19;4894073;29;20033;-74
2024/01/06 03:49:00;;;;;;;20.63;7.32;;;;;;;4.71;100.00;100436.91;4898336;29;20497;-74
2024/01/06 03:51:25;;;;;;;19.27;7.30;;;;;;;4.68;100.00;100435.28;4889056;29;20053;-76
2024/01/06 03:53:50;;;;;;;19.70;6.90;;;;;;;4.68;100.00;100442.41;4890951;29;20029;-74
2024/01/06 03:56:16;;;;;;;20.25;6.50;;;;;;;4.63;100.00;100436.50;4894581;29;20089;-75
2024/01/06 03:58:41;;;;;;;17.13;6.75;;;;;;;4.62;100.00;100437.44;4909946;29;20060;-76
2024/01/06 04:01:06;;;;;;;20.30;7.85;;;;;;;4.62;100.00;100442.75;4901996;29;20123;-76
2024/01/06 04:03:32;;;;;;;18.40;6.53;;;;;;;4.64;100.00;100446.19;4895482;29;20071;-74
2024/01/06 04:05:57;;;;;;;17.90;6.75;;;;;;;4.67;100.00;100440.69;4896112;29;20224;-73
2024/01/06 04:08:22;;;;;;;19.27;7.18;;;;;;;4.70;100.00;100451.16;4896718;29;20036;-74
2024/01/06 04:10:48;;;;;;;19.88;7.07;;;;;;;4.69;100.00;100455.63;4900071;29;20033;-74
2024/01/06 04:13:14;;;;;;;19.17;7.57;;;;;;;4.70;100.00;100451.16;4899803;29;20128;-74
2024/01/06 04:15:40;;;;;;;20.05;6.47;;;;;;;4.68;100.00;100453.06;4903230;29;20068;-73
2024/01/06 04:18:05;;;;;;;19.65;7.15;;;;;;;4.69;100.00;100462.78;4906163;29;20036;-74
2024/01/06 04:20:31;;;;;;;19.05;6.57;;;;;;;4.64;100.00;100454.16;4907382;29;20044;-76
2024/01/06 04:22:57;;;;;;;19.02;7.50;;;;;;;4.61;100.00;100460.53;4901874;29;20039;-74
2024/01/06 04:25:22;;;;;;;20.13;8.43;;;;;;;4.57;100.00;100458.09;4906315;29;20037;-76
2024/01/06 04:27:48;;;;;;;20.10;7.65;;;;;;;4.60;100.00;100471.22;4908097;29;20028;-74
2024/01/06 04:30:14;;;;;;;19.40;7.57;;;;;;;4.60;100.00;100469.47;4900708;29;20033;-74
2024/01/06 04:32:40;;;;;;;20.67;7.63;;;;;;;4.54;100.00;100473.31;4905912;29;20033;-76
2024/01/06 04:35:06;;;;;;;20.63;7.43;;;;;;;4.51;100.00;100473.47;4903223;29;20050;-76
2024/01/06 04:37:31;;;;;;;21.05;7.32;;;;;;;4.49;100.00;100477.16;4899466;29;20064;-74
2024/01/06 04:39:57;;;;;;;18.75;6.55;;;;;;;4.42;100.00;100473.94;4893984;29;20040;-74
2024/01/06 04:42:22;;;;;;;19.77;7.97;;;;;;;4.41;100.00;100482.00;4899670;29;20049;-76
2024/01/06 04:44:48;;;;;;;19.05;7.00;;;;;;;4.43;100.00;100481.00;4899829;29;20101;-75
2024/01/06 04:47:13;;;;;;;20.02;6.72;;;;;;;4.43;100.00;100480.16;4900334;29;20035;-76
2024/01/06 04:49:38;;;;;;;18.27;5.50;;;;;;;4.46;100.00;100486.16;4895753;29;20028;-74
2024/01/06 04:52:04;;;;;;;17.90;6.43;;;;;;;4.49;100.00;100491.31;4896747;29;20043;-76
2024/01/06 04:54:29;;;;;;;17.20;5.95;;;;;;;4.47;100.00;100495.00;4902708;29;20029;-76
2024/01/06 04:56:55;;;;;;;18.70;6.50;;;;;;;4.45;100.00;100503.09;4901740;29;20025;-74
2024/01/06 04:59:21;;;;;;;20.65;6.82;;;;;;;4.42;100.00;100491.72;4907433;29;20069;-76
2024/01/06 05:01:46;;;;;;;19.90;6.65;;;;;;;4.34;100.00;100508.09;4897005;29;20090;-74
2024/01/06 05:04:11;;;;;;;18.08;6.88;;;;;;;4.31;100.00;100503.81;4899708;29;20037;-76
2024/01/06 05:06:37;;;;;;;19.23;7.13;;;;;;;4.36;100.00;100506.22;4903565;29;20051;-76
2024/01/06 05:09:02;;;;;;;19.40;7.65;;;;;;;4.36;100.00;100514.19;4894255;29;20033;-74
2024/01/06 05:11:27;;;;;;;19.73;6.72;;;;;;;4.37;100.00;100514.09;4900230;29;20096;-74
2024/01/06 05:13:53;;;;;;;17.15;7.07;;;;;;;4.37;100.00;100523.91;4906750;29;20255;-76
2024/01/06 05:16:18;;;;;;;17.73;6.10;;;;;;;4.35;100.00;100524.00;4901875;29;20032;-74
2024/01/06 05:18:43;;;;;;;16.55;5.93;;;;;;;4.33;100.00;100525.00;4894808;29;20064;-76
2024/01/06 05:21:09;;;;;;;15.20;5.40;;;;;;;4.32;100.00;100536.56;4899198;29;20025;-76
2024/01/06 05:23:34;;;;;;;19.38;5.88;;;;;;;4.33;100.00;100527.66;4900086;29;20050;-76
2024/01/06 05:25:59;;;;;;;14.93;5.20;;;;;;;4.29;100.00;100526.97;4901807;29;20025;-76
2024/01/06 05:28:25;;;;;;;16.13;5.40;;;;;;;4.29;100.00;100534.97;4904042;29;20033;-76
2024/01/06 05:30:50;;;;;;;18.52;6.90;;;;;;;4.31;100.00;100534.88;4891631;29;20021;-76
2024/01/06 05:33:16;;;;;;;13.30;5.28;;;;;;;4.34;100.00;100545.34;4890131;29;20036;-75
2024/01/06 05:35:41;;;;;;;16.05;5.50;;;;;;;4.35;100.00;100537.28;4880862;29;20068;-76
2024/01/06 05:38:07;;;;;;;17.63;5.88;;;;;;;4.37;100.00;100543.38;4878652;29;20116;-75
2024/01/06 05:40:32;;;;;;;14.00;5.00;;;;;;;4.40;100.00;100552.16;4879234;29;20033;-75
2024/01/06 05:42:57;;;;;;;14.57;4.90;;;;;;;4.41;100.00;100548.53;4879747;29;20036;-76
2024/01/06 05:45:23;;;;;;;13.98;4.75;;;;;;;4.38;100.00;100554.91;4880439;29;20045;-75
2024/01/06 05:47:48;;;;;;;15.60;4.75;;;;;;;4.36;100.00;100562.97;4878595;29;20442;-75
2024/01/06 05:50:16;;;;;;;13.55;4.40;;;;;;;4.36;100.00;100564.75;4880045;29;20412;-75
2024/01/06 05:52:41;;;;;;;14.52;4.75;;;;;;;4.35;100.00;100565.72;4881928;29;20536;-76
2024/01/06 05:55:07;;;;;;;15.27;4.57;;;;;;;4.34;100.00;100564.81;4880932;29;20128;-75
2024/01/06 05:57:32;;;;;;;14.82;4.97;;;;;;;4.30;100.00;100567.72;4880726;29;20108;-75
2024/01/06 05:59:59;;;;;;;18.27;5.13;;;;;;;4.31;100.00;100574.78;4879948;29;20172;-75
2024/01/06 06:02:24;;;;;;;17.65;5.22;;;;;;;4.32;100.00;100576.47;4881588;29;20067;-75
2024/01/06 06:04:49;;;;;;;17.90;5.40;;;;;;;4.34;100.00;100582.59;4883608;29;20585;-75
2024/01/06 06:07:15;;;;;;;16.88;5.30;;;;;;;4.30;100.00;100579.22;4872448;29;20090;-76
2024/01/06 06:09:40;;;;;;;15.68;4.95;;;;;;;4.27;100.00;100589.16;4877655;29;20511;-75
2024/01/06 06:12:06;;;;;;;15.32;4.97;;;;;;;4.28;100.00;100594.41;4885222;29;20079;-76
2024/01/06 06:14:31;;;;;;;16.60;5.25;;;;;;;4.27;100.00;100591.84;4871482;29;20033;-75
2024/01/06 06:16:56;;;;;;;17.83;6.03;;;;;;;4.25;100.00;100596.38;4877877;29;20041;-75
2024/01/06 06:19:22;;;;;;;15.13;5.35;;;;;;;4.23;100.00;100598.25;4878365;29;20421;-76
2024/01/06 06:21:47;;;;;;;16.15;5.45;;;;;;;4.21;100.00;100598.31;4874253;29;20124;-75
2024/01/06 06:24:13;;;;;;;14.95;5.15;;;;;;;4.22;100.00;100615.13;4886218;29;20116;-75
2024/01/06 06:26:38;;;;;;;18.17;5.88;;;;;;;4.23;100.00;100616.88;4873705;29;20483;-75
2024/01/06 06:29:04;;;;;;;17.70;6.22;;;;;;;4.16;100.00;100622.50;4881533;29;20037;-75
2024/01/06 06:31:29;;;;;;;16.52;6.13;;;;;;;4.15;100.00;100620.78;4876521;29;20140;-75
2024/01/06 06:33:54;;;;;;;20.15;7.22;;;;;;;4.14;100.00;100626.16;4881338;29;20028;-75
2024/01/06 06:36:20;;;;;;;17.85;6.00;;;;;;;4.12;100.00;100625.41;4883172;29;20053;-75
2024/01/06 06:38:45;;;;;;;18.08;6.10;;;;;;;4.13;100.00;100629.75;4877183;29;20111;-75
2024/01/06 06:41:10;;;;;;;19.20;7.15;;;;;;;4.14;100.00;100635.03;4879129;29;20037;-76
2024/01/06 06:43:36;;;;;;;21.83;7.30;;;;;;;4.13;100.00;100637.72;4878619;29;20040;-76
2024/01/06 06:46:02;;;;;;;16.73;6.30;;;;;;;4.14;100.00;100639.47;4895737;29;20036;-75
2024/01/06 06:48:27;;;;;;;18.15;6.60;;;;;;;4.15;100.00;100639.38;4882752;29;20557;-76
2024/01/06 06:50:52;;;;;;;18.00;6.40;;;;;;;4.19;100.00;100642.78;4887687;29;20052;-75
2024/01/06 06:53:18;;;;;;;19.55;6.22;;;;;;;4.16;100.00;100649.09;4887311;29;20117;-75
2024/01/06 06:55:43;;;;;;;17.42;6.03;;;;;;;4.16;100.00;100651.75;4890713;29;20338;-75
2024/01/06 06:58:08;;;;;;;17.60;6.10;;;;;;;4.20;100.00;100657.78;4882557;29;20115;-76
2024/01/06 07:00:35;;;;;;;16.33;5.63;;;;;;;4.19;100.00;100669.38;4882569;29;20029;-75
2024/01/06 07:03:00;;;;;;;16.40;6.15;;;;;;;4.16;100.00;100673.03;4883693;29;20037;-75
2024/01/06 07:05:26;;;;;;;17.75;5.38;;;;;;;4.13;100.00;100677.63;4888284;29;20039;-76
2024/01/06 07:07:51;;;;;;;19.63;7.65;;;;;;;4.12;100.00;100678.59;4888497;29;20229;-76
2024/01/06 07:10:18;;;;;;;19.48;7.07;;;;;;;4.13;100.00;100691.81;4884977;29;20029;-76
2024/01/06 07:12:43;;;;;;;19.27;6.43;;;;;;;4.15;100.00;100689.06;4889564;29;20036;-75
2024/01/06 07:15:11;;;;;;;19.90;7.38;;;;;;;4.16;100.00;100685.50;4880945;29;20022;-76
2024/01/06 07:17:40;;;;;;;18.77;6.65;;;;;;;4.22;100.00;100694.94;4886982;29;20040;-75
2024/01/06 07:20:06;;;;;;;18.10;6.60;;;;;;;4.22;100.00;100698.47;4890430;29;20024;-76
2024/01/06 07:22:34;;;;;;;18.02;6.07;;;;;;;4.25;100.00;100702.78;4883886;29;20032;-75
2024/01/06 07:24:59;;;;;;;18.80;6.88;;;;;;;4.28;100.00;100708.81;4887004;29;20049;-75
2024/01/06 07:27:25;;;;;;;21.95;6.93;;;;;;;4.32;100.00;100709.50;4883726;29;20096;-76
2024/01/06 07:29:50;;;;;;;20.67;7.93;;;;;;;4.32;100.00;100723.69;4883160;29;20029;-76
2024/01/06 07:32:16;;;;;;;20.52;8.10;;;;;;;4.29;100.00;100712.31;4881808;29;20443;-76
2024/01/06 07:34:41;;;;;;;19.55;6.75;;;;;;;4.24;100.00;100709.91;4884905;29;20053;-76
2024/01/06 07:37:06;;;;;;;20.83;8.00;;;;;;;4.23;100.00;100712.63;4885500;29;20521;-75
2024/01/06 07:39:31;;;;;;;23.02;7.45;;;;;;;4.22;100.00;100710.91;4885328;29;20035;-76
2024/01/06 07:41:57;;;;;;;21.38;7.95;;;;;;;4.22;100.00;100718.88;4889956;29;20430;-75
2024/01/06 07:44:24;;;;;;;19.58;7.10;;;;;;;4.19;100.00;100718.09;4888238;29;20114;-76
2024/01/06 07:46:52;;;;;;;20.17;7.15;;;;;;;4.20;100.00;100724.28;4884233;29;20116;-76
2024/01/06 07:49:18;;;;;;;22.38;8.38;;;;;;;4.23;100.00;100726.78;4883089;29;20044;-75
2024/01/06 07:51:43;;;;;;;20.20;7.97;;;;;;;4.24;100.00;100732.97;4890837;29;20115;-76
2024/01/06 07:54:09;;;;;;;24.73;8.77;;;;;;;4.24;100.00;100738.31;4887600;29;20033;-75
2024/01/06 07:56:35;;;;;;;23.35;9.32;;;;;;;4.23;100.00;100736.56;4900827;29;20032;-75
2024/01/06 07:59:01;;;;;;;23.63;9.70;;;;;;;4.20;100.00;100746.44;4897857;29;20061;-75
2024/01/06 08:01:26;;;;;;;27.60;12.50;;;;;;;4.20;100.00;100742.91;4899364;29;20036;-75
2024/01/06 08:03:52;;;;;;;22.50;9.40;;;;;;;4.17;100.00;100745.72;4889381;29;20093;-75
2024/01/06 08:06:17;;;;;;;22.38;8.35;;;;;;;4.16;100.00;100754.66;4894181;29;20036;-75
2024/01/06 08:08:42;;;;;;;19.13;7.43;;;;;;;4.16;100.00;100751.97;4895741;29;20025;-75
2024/01/06 08:11:08;;;;;;;21.35;9.55;;;;;;;4.16;100.00;100765.28;4899746;29;20036;-75
2024/01/06 08:13:33;;;;;;;23.60;9.07;;;;;;;4.14;100.00;100770.69;4893530;29;20028;-75
2024/01/06 08:15:59;;;;;;;20.38;7.13;;;;;;;4.15;100.00;100772.38;4895892;29;20059;-75
2024/01/06 08:18:24;;;;;;;19.35;7.97;;;;;;;4.15;100.00;100785.69;4896562;29;20025;-75
2024/01/06 08:20:49;;;;;;;19.38;7.68;;;;;;;4.18;100.00;100782.88;4890646;29;20036;-75
2024/01/06 08:23:16;;;;;;;20.02;7.60;;;;;;;4.18;100.00;100790.84;4891563;29;20074;-75
2024/01/06 08:25:41;;;;;;;22.20;8.20;;;;;;;4.14;100.00;100783.09;4895532;29;20039;-75
2024/01/06 08:28:06;;;;;;;21.77;8.38;;;;;;;4.15;100.00;100785.69;4890950;29;20295;-75
2024/01/06 08:30:32;;;;;;;19.20;7.20;;;;;;;4.15;100.00;100784.81;4888641;29;20033;-75
2024/01/06 08:32:59;;;;;;;22.15;8.10;;;;;;;4.16;100.00;100798.06;4899341;29;20036;-75
2024/01/06 08:35:24;;;;;;;21.40;8.70;;;;;;;4.19;100.00;100802.38;4899242;29;20008;-75
2024/01/06 08:37:50;;;;;;;22.05;8.30;;;;;;;4.20;100.00;100799.63;4893402;29;20060;-75
2024/01/06 08:40:15;;;;;;;19.98;8.40;;;;;;;4.16;100.00;100803.38;4891930;29;20028;-75
2024/01/06 08:42:41;;;;;;;24.63;9.98;;;;;;;4.17;100.00;100813.09;4890941;29;20033;-75
2024/01/06 08:45:06;;;;;;;21.85;8.57;;;;;;;4.13;100.00;100814.16;4890631;29;20030;-75
2024/01/06 08:47:32;;;;;;;22.25;8.68;;;;;;;4.13;100.00;100827.47;4891154;29;20048;-75
2024/01/06 08:49:57;;;;;;;19.75;8.27;;;;;;;4.11;100.00;100821.34;4894564;29;20072;-75
2024/01/06 08:52:23;;;;;;;20.35;7.50;;;;;;;4.06;100.00;100827.81;4892225;29;20033;-75
2024/01/06 08:54:49;;;;;;;18.25;6.95;;;;;;;4.03;100.00;100828.81;4892797;29;20045;-75
2024/01/06 08:57:14;;;;;;;19.92;7.38;;;;;;;4.00;100.00;100836.94;4893895;29;20032;-75
2024/01/06 08:59:40;;;;;;;21.15;8.38;;;;;;;4.01;100.00;100849.28;4888476;29;20041;-75
2024/01/06 09:02:05;;;;;;;19.30;8.02;;;;;;;3.98;100.00;100846.78;4890793;29;20048;-75
2024/01/06 09:04:30;;;;;;;23.25;8.50;;;;;;;3.98;100.00;100844.13;4887631;29;20045;-76
2024/01/06 09:06:56;;;;;;;20.52;7.25;;;;;;;3.99;100.00;100851.16;4884882;29;20029;-75
2024/01/06 09:09:23;;;;;;;22.65;7.65;;;;;;;3.97;100.00;100858.38;4876822;29;20045;-75
2024/01/06 09:11:48;;;;;;;19.50;6.80;;;;;;;3.96;100.00;100860.13;4882760;29;20120;-75
2024/01/06 09:14:13;;;;;;;21.50;8.60;;;;;;;3.97;100.00;100855.72;4877459;29;20048;-75
2024/01/06 09:16:39;;;;;;;21.00;7.63;;;;;;;4.00;100.00;100858.22;4879050;29;20032;-75
2024/01/06 09:19:04;;;;;;;20.33;8.20;;;;;;;4.01;100.00;100868.78;4875933;29;20588;-75
2024/01/06 09:21:29;;;;;;;20.00;8.07;;;;;;;4.01;100.00;100867.91;4882171;29;20035;-75
2024/01/06 09:23:55;;;;;;;22.15;7.60;;;;;;;4.05;100.00;100868.66;4878366;29;20111;-75
2024/01/06 09:26:20;;;;;;;21.85;9.20;;;;;;;4.03;100.00;100879.34;4874698;29;20036;-75
2024/01/06 09:28:45;;;;;;;22.52;8.20;;;;;;;4.05;100.00;100889.91;4877231;29;20136;-76
2024/01/06 09:31:11;;;;;;;20.52;7.68;;;;;;;4.05;100.00;100887.25;4879512;29;20091;-75
2024/01/06 09:33:36;;;;;;;22.45;8.85;;;;;;;4.06;100.00;100878.34;4873851;29;20389;-75
2024/01/06 09:36:02;;;;;;;20.45;8.48;;;;;;;4.01;100.00;100883.84;4880388;29;20049;-75
2024/01/06 09:38:28;;;;;;;24.13;8.50;;;;;;;3.98;100.00;100894.63;4879000;29;20047;-76
2024/01/06 09:40:55;;;;;;;21.45;8.35;;;;;;;3.98;100.00;100900.84;4875875;29;20028;-75
2024/01/06 09:43:20;;;;;;;21.30;8.65;;;;;;;3.97;100.00;100903.56;4882212;29;20060;-75
2024/01/06 09:45:53;;;;;;;23.17;9.25;;;;;;;3.99;100.00;100899.03;4875700;29;20025;-75
2024/01/06 09:48:22;;;;;;;19.92;7.93;;;;;;;3.97;100.00;100907.09;4894780;29;20058;-75
2024/01/06 09:50:49;;;;;;;21.92;8.82;;;;;;;3.98;100.00;100916.78;4892837;29;20025;-76
2024/01/06 09:53:15;;;;;;;21.38;8.82;;;;;;;4.00;100.00;100922.03;4897069;29;20124;-75
2024/01/06 09:55:41;;;;;;;20.83;8.60;;;;;;;4.03;100.00;100922.75;4894325;29;20032;-75
2024/01/06 09:58:06;;;;;;;20.27;8.25;;;;;;;4.01;100.00;100927.28;4889858;29;20513;-76
2024/01/06 10:00:31;;;;;;;20.35;8.15;;;;;;;4.02;100.00;100929.00;4896529;29;20128;-76
2024/01/06 10:02:57;;;;;;;20.95;8.23;;;;;;;4.03;100.00;100929.88;4890571;29;21110;-75
2024/01/06 10:05:23;;;;;;;18.98;7.68;;;;;;;4.04;100.00;100934.25;4890719;29;20047;-76
2024/01/06 10:07:49;;;;;;;20.88;8.25;;;;;;;4.01;100.00;100931.72;4896308;29;20036;-75
2024/01/06 10:10:14;;;;;;;21.92;8.43;;;;;;;4.02;100.00;100938.78;4885068;29;20036;-76
2024/01/06 10:12:41;;;;;;;20.30;7.20;;;;;;;4.03;100.00;100946.69;4884760;29;20029;-76
2024/01/06 10:15:08;;;;;;;20.67;8.40;;;;;;;4.02;100.00;100955.59;4877425;29;20037;-75
2024/01/06 10:17:37;;;;;;;21.13;7.57;;;;;;;4.05;100.00;100959.06;4892784;29;20033;-73
2024/01/06 10:20:03;;;;;;;19.97;8.30;;;;;;;4.10;100.00;100957.94;4893052;29;20024;-73
2024/01/06 10:22:28;;;;;;;21.95;8.65;;;;;;;4.09;100.00;100950.88;4888177;29;20305;-76
2024/01/06 10:24:55;;;;;;;22.27;8.82;;;;;;;4.07;100.00;100958.06;4885964;29;20048;-73
2024/01/06 10:27:21;;;;;;;23.25;9.32;;;;;;;4.07;100.00;100958.06;4886828;29;20056;-76
2024/01/06 10:29:47;;;;;;;20.95;8.30;;;;;;;4.10;100.00;100963.25;4892006;29;20052;-76
2024/01/06 10:32:12;;;;;;;19.33;7.60;;;;;;;4.13;100.00;100962.22;4893579;29;20017;-76
2024/01/06 10:34:38;;;;;;;22.30;8.77;;;;;;;4.14;100.00;100962.19;4893035;29;20043;-76
2024/01/06 10:37:03;;;;;;;19.65;7.68;;;;;;;4.19;100.00;100964.63;4888039;29;20112;-76
2024/01/06 10:39:29;;;;;;;20.85;8.48;;;;;;;4.20;100.00;100969.88;4891097;29;20025;-76
2024/01/06 10:41:54;;;;;;;21.35;8.77;;;;;;;4.17;100.00;100969.16;4897045;29;20043;-76
2024/01/06 10:44:21;;;;;;;20.85;8.18;;;;;;;4.15;100.00;100966.56;4903393;29;20033;-76
2024/01/06 10:46:49;;;;;;;20.70;7.95;;;;;;;4.18;100.00;100970.88;4906429;29;20144;-73
2024/01/06 10:49:15;;;;;;;20.83;8.32;;;;;;;4.15;100.00;100977.19;4900607;29;20043;-76
2024/01/06 10:51:40;;;;;;;19.67;8.10;;;;;;;4.12;100.00;100966.69;4900120;29;20052;-74
2024/01/06 10:54:06;;;;;;;23.63;8.23;;;;;;;4.16;100.00;100983.41;4908628;29;20019;-75
2024/01/06 10:56:36;;;;;;;19.92;8.05;;;;;;;4.16;100.00;100973.63;4899569;29;20093;-73
2024/01/06 10:59:03;;;;;;;22.77;8.63;;;;;;;4.13;100.00;100976.41;4886533;29;20052;-73
2024/01/06 11:01:29;;;;;;;19.73;8.00;;;;;;;4.16;100.00;100981.59;4891491;29;20037;-75
2024/01/06 11:03:55;;;;;;;21.85;8.82;;;;;;;4.20;100.00;100980.53;4890858;29;20066;-74
2024/01/06 11:06:21;;;;;;;20.42;7.57;;;;;;;4.25;100.00;100976.81;4894958;29;20040;-75